Time,TemperatureF,DewpointF,PressureIn,WindDirection,WindDirectionDegrees,WindSpeedMPH,WindSpeedGustMPH,Humidity,HourlyPrecipIn,Conditions,Clouds,dailyrainin,SoftwareType,DateUTC
2013-06-09 00:10:00,62.6,60.5,29.78,South,171,6.0,9.0,93,0.09,,---,0.02,VWS V14.01,2013-06-09 05:10:00,
2013-06-09 00:25:00,62.4,60.3,29.77,South,175,2.0,6.0,93,0.11,,---,0.05,VWS V14.01,2013-06-09 05:25:00,
2013-06-09 00:40:00,62.3,60.6,29.77,South,169,0.0,6.0,94,0.13,,---,0.07,VWS V14.01,2013-06-09 05:40:00,
2013-06-09 00:55:00,62.3,60.6,29.76,SSE,163,1.0,6.0,94,0.11,,---,0.08,VWS V14.01,2013-06-09 05:55:00,
2013-06-09 01:10:00,62.3,60.8,29.76,South,172,1.0,6.0,95,0.08,,---,0.08,VWS V14.01,2013-06-09 06:10:00,
2013-06-09 01:25:00,62.4,61.0,29.76,South,186,0.0,5.0,95,0.15,,---,0.17,VWS V14.01,2013-06-09 06:25:00,
2013-06-09 01:40:00,62.5,61.0,29.76,South,191,1.0,8.0,95,0.16,,---,0.21,VWS V14.01,2013-06-09 06:40:00,
2013-06-09 01:55:00,62.6,61.5,29.75,SSE,162,6.0,7.0,96,0.20,,---,0.27,VWS V14.01,2013-06-09 06:55:00,
2013-06-09 02:10:00,62.4,61.2,29.74,SSE,163,2.0,8.0,96,0.22,,---,0.30,VWS V14.01,2013-06-09 07:10:00,
2013-06-09 02:25:00,62.4,61.2,29.74,South,170,2.0,10.0,96,0.24,,---,0.32,VWS V14.01,2013-06-09 07:25:00,
2013-06-09 02:40:00,62.5,61.3,29.74,SSE,159,4.0,9.0,96,0.15,,---,0.32,VWS V14.01,2013-06-09 07:40:00,
2013-06-09 02:55:00,62.7,61.5,29.74,SSE,157,2.0,11.0,96,0.11,,---,0.32,VWS V14.01,2013-06-09 07:55:00,
2013-06-09 03:10:00,63.0,61.8,29.75,SE,146,9.0,12.0,96,0.07,,---,0.34,VWS V14.01,2013-06-09 08:10:00,
2013-06-09 03:25:00,63.1,62.2,29.74,South,181,4.0,13.0,97,0.04,,---,0.34,VWS V14.01,2013-06-09 08:25:00,
2013-06-09 03:40:00,63.2,62.0,29.75,SSE,167,6.0,10.0,96,0.03,,---,0.35,VWS V14.01,2013-06-09 08:40:00,
2013-06-09 03:55:00,63.4,62.2,29.74,SSE,160,6.0,11.0,96,0.03,,---,0.35,VWS V14.01,2013-06-09 08:55:00,
2013-06-09 04:10:00,63.5,62.3,29.75,South,186,4.0,13.0,96,0.03,,---,0.35,VWS V14.01,2013-06-09 09:10:00,
2013-06-09 04:25:00,63.4,62.2,29.74,SSW,198,9.0,15.0,96,0.02,,---,0.36,VWS V14.01,2013-06-09 09:25:00,
2013-06-09 04:40:00,63.1,61.9,29.74,South,180,4.0,12.0,96,0.05,,---,0.39,VWS V14.01,2013-06-09 09:40:00,
2013-06-09 04:55:00,62.9,61.8,29.74,SSE,159,6.0,11.0,96,0.04,,---,0.39,VWS V14.01,2013-06-09 09:55:00,
2013-06-09 05:10:00,62.8,61.7,29.74,South,172,4.0,8.0,96,0.04,,---,0.39,VWS V14.01,2013-06-09 10:10:00,
2013-06-09 05:25:00,62.7,61.5,29.74,South,172,2.0,4.0,96,0.05,,---,0.40,VWS V14.01,2013-06-09 10:25:00,
2013-06-09 05:40:00,62.5,61.3,29.74,South,173,0.0,5.0,96,0.06,,---,0.42,VWS V14.01,2013-06-09 10:40:00,
2013-06-09 05:55:00,62.4,61.2,29.74,South,169,0.0,2.0,96,0.03,,---,0.42,VWS V14.01,2013-06-09 10:55:00,
2013-06-09 06:10:00,62.5,61.3,29.74,SE,146,0.0,4.0,96,0.03,,---,0.42,VWS V14.01,2013-06-09 11:10:00,
2013-06-09 06:25:00,62.5,61.3,29.75,SW,218,0.0,1.0,96,0.04,,---,0.43,VWS V14.01,2013-06-09 11:25:00,
2013-06-09 06:40:00,62.7,61.5,29.75,WSW,254,0.0,0.0,96,0.03,,---,0.43,VWS V14.01,2013-06-09 11:40:00,
2013-06-09 06:55:00,63.0,61.8,29.74,SSE,161,5.0,6.0,96,0.01,,---,0.43,VWS V14.01,2013-06-09 11:55:00,
2013-06-09 07:10:00,63.5,62.3,29.74,South,175,1.0,7.0,96,0.01,,---,0.43,VWS V14.01,2013-06-09 12:10:00,
2013-06-09 07:25:00,63.7,62.5,29.74,SSE,168,1.0,10.0,96,0.01,,---,0.43,VWS V14.01,2013-06-09 12:25:00,
2013-06-09 07:40:00,63.7,62.5,29.74,South,191,8.0,10.0,96,0.00,,---,0.43,VWS V14.01,2013-06-09 12:40:00,
2013-06-09 07:55:00,63.7,62.5,29.75,South,171,8.0,12.0,96,0.00,,---,0.43,VWS V14.01,2013-06-09 12:55:00,
2013-06-09 08:10:00,63.7,62.5,29.74,South,186,3.0,10.0,96,0.00,,---,0.43,VWS V14.01,2013-06-09 13:10:00,
2013-06-09 08:25:00,64.1,62.6,29.74,South,187,5.0,11.0,95,0.00,,---,0.43,VWS V14.01,2013-06-09 13:25:00,
2013-06-09 08:40:00,64.3,62.8,29.74,SSW,200,5.0,13.0,95,0.00,,---,0.43,VWS V14.01,2013-06-09 13:40:00,
2013-06-09 08:55:00,64.8,63.0,29.74,SSW,199,7.0,12.0,94,0.00,,---,0.43,VWS V14.01,2013-06-09 13:55:00,
2013-06-09 09:10:00,66.1,64.0,29.73,SW,217,11.0,15.0,93,0.00,,---,0.43,VWS V14.01,2013-06-09 14:10:00,
2013-06-09 09:25:00,66.8,63.5,29.74,SSW,205,6.0,13.0,89,0.00,,---,0.43,VWS V14.01,2013-06-09 14:25:00,
2013-06-09 09:40:00,68.1,64.7,29.74,SW,216,3.0,15.0,89,0.00,,---,0.43,VWS V14.01,2013-06-09 14:40:00,
2013-06-09 09:55:00,68.5,64.5,29.73,South,191,6.0,16.0,87,0.00,,---,0.43,VWS V14.01,2013-06-09 14:55:00,
2013-06-09 10:10:00,69.5,64.5,29.72,SSW,198,10.0,12.0,84,0.00,,---,0.43,VWS V14.01,2013-06-09 15:10:00,
2013-06-09 10:25:00,69.9,63.5,29.72,WSW,240,3.0,14.0,80,0.00,,---,0.43,VWS V14.01,2013-06-09 15:25:00,
2013-06-09 10:40:00,70.6,63.4,29.72,SW,230,13.0,17.0,78,0.00,,---,0.43,VWS V14.01,2013-06-09 15:40:00,
2013-06-09 10:55:00,71.1,62.4,29.72,West,259,3.0,14.0,74,0.00,,---,0.43,VWS V14.01,2013-06-09 15:55:00,
2013-06-09 11:10:00,71.1,62.4,29.72,SSW,207,8.0,21.0,74,0.00,,---,0.43,VWS V14.01,2013-06-09 16:10:00,
2013-06-09 11:25:00,71.9,61.2,29.72,WSW,245,17.0,21.0,69,0.00,,---,0.43,VWS V14.01,2013-06-09 16:25:00,
2013-06-09 11:40:00,72.3,61.6,29.73,SW,236,12.0,18.0,69,0.00,,---,0.43,VWS V14.01,2013-06-09 16:40:00,
2013-06-09 11:55:00,72.8,62.0,29.73,West,263,4.0,18.0,69,0.00,,---,0.43,VWS V14.01,2013-06-09 16:55:00,
2013-06-09 12:10:00,72.2,60.7,29.73,WSW,253,7.0,13.0,67,0.00,,---,0.43,VWS V14.01,2013-06-09 17:10:00,
2013-06-09 12:25:00,72.8,63.3,29.73,West,276,2.0,15.0,72,0.00,,---,0.43,VWS V14.01,2013-06-09 17:25:00,
2013-06-09 12:40:00,73.1,60.7,29.73,WSW,253,2.0,11.0,65,0.00,,---,0.43,VWS V14.01,2013-06-09 17:40:00,
2013-06-09 12:55:00,73.6,61.1,29.73,West,261,4.0,15.0,65,0.00,,---,0.43,VWS V14.01,2013-06-09 17:55:00,
2013-06-09 13:10:00,73.9,61.8,29.72,SW,216,5.0,15.0,66,0.00,,---,0.43,VWS V14.01,2013-06-09 18:10:00,
2013-06-09 13:25:00,73.6,60.7,29.72,WNW,294,5.0,19.0,64,0.00,,---,0.43,VWS V14.01,2013-06-09 18:25:00,
2013-06-09 13:40:00,73.6,62.4,29.72,SSW,212,6.0,12.0,68,0.00,,---,0.43,VWS V14.01,2013-06-09 18:40:00,
2013-06-09 13:55:00,73.4,61.8,29.72,NW,319,6.0,10.0,67,0.00,,---,0.43,VWS V14.01,2013-06-09 18:55:00,
2013-06-09 14:10:00,73.0,61.4,29.72,WSW,256,1.0,12.0,67,0.00,,---,0.43,VWS V14.01,2013-06-09 19:10:00,
2013-06-09 14:25:00,73.2,61.6,29.71,WNW,296,1.0,12.0,67,0.00,,---,0.43,VWS V14.01,2013-06-09 19:25:00,
2013-06-09 14:40:00,73.6,60.7,29.72,NW,309,9.0,19.0,64,0.00,,---,0.43,VWS V14.01,2013-06-09 19:40:00,
2013-06-09 14:55:00,73.7,62.5,29.71,West,277,9.0,14.0,68,0.00,,---,0.43,VWS V14.01,2013-06-09 19:55:00,
2013-06-09 15:10:00,74.0,61.5,29.72,WSW,253,5.0,14.0,65,0.00,,---,0.43,VWS V14.01,2013-06-09 20:10:00,
2013-06-09 15:25:00,74.5,61.5,29.72,WNW,297,4.0,12.0,64,0.00,,---,0.43,VWS V14.01,2013-06-09 20:25:00,
2013-06-09 15:40:00,73.7,61.2,29.72,WNW,292,4.0,14.0,65,0.00,,---,0.43,VWS V14.01,2013-06-09 20:40:00,
2013-06-09 15:55:00,73.6,62.0,29.72,WNW,301,5.0,13.0,67,0.00,,---,0.43,VWS V14.01,2013-06-09 20:55:00,
2013-06-09 16:10:00,72.9,61.7,29.72,NW,311,6.0,12.0,68,0.00,,---,0.43,VWS V14.01,2013-06-09 21:10:00,
2013-06-09 16:25:00,72.1,61.8,29.72,North,355,13.0,13.0,70,0.00,,---,0.43,VWS V14.01,2013-06-09 21:25:00,
2013-06-09 16:40:00,71.9,61.6,29.72,NNW,329,6.0,15.0,70,0.00,,---,0.43,VWS V14.01,2013-06-09 21:40:00,
2013-06-09 16:55:00,70.8,60.5,29.72,NNW,333,9.0,12.0,70,0.00,,---,0.43,VWS V14.01,2013-06-09 21:55:00,
2013-06-09 17:10:00,70.1,59.9,29.72,NW,305,1.0,10.0,70,0.00,,---,0.43,VWS V14.01,2013-06-09 22:10:00,
2013-06-09 17:25:00,69.6,60.6,29.71,West,272,3.0,10.0,73,0.00,,---,0.43,VWS V14.01,2013-06-09 22:25:00,
2013-06-09 17:40:00,69.6,61.0,29.72,WNW,293,3.0,8.0,74,0.00,,---,0.43,VWS V14.01,2013-06-09 22:40:00,
2013-06-09 17:55:00,69.5,60.9,29.71,WNW,295,2.0,5.0,74,0.00,,---,0.43,VWS V14.01,2013-06-09 22:55:00,
2013-06-09 18:10:00,69.7,61.0,29.71,West,262,1.0,7.0,74,0.00,,---,0.43,VWS V14.01,2013-06-09 23:10:00,
2013-06-09 18:25:00,70.0,61.3,29.71,NW,306,3.0,5.0,74,0.00,,---,0.43,VWS V14.01,2013-06-09 23:25:00,
2013-06-09 18:40:00,70.2,61.5,29.71,WSW,241,3.0,5.0,74,0.00,,---,0.43,VWS V14.01,2013-06-09 23:40:00,
2013-06-09 18:55:00,71.4,61.5,29.71,WNW,293,7.0,10.0,71,0.00,,---,0.43,VWS V14.01,2013-06-09 23:55:00,
2013-06-09 19:10:00,71.4,61.9,29.72,WNW,302,0.0,9.0,72,0.00,,---,0.43,VWS V14.01,2013-06-10 00:10:00,
2013-06-09 19:25:00,70.7,61.6,29.72,West,277,1.0,6.0,73,0.00,,---,0.43,VWS V14.01,2013-06-10 00:25:00,
2013-06-09 19:40:00,70.1,61.0,29.72,WNW,288,0.0,7.0,73,0.00,,---,0.43,VWS V14.01,2013-06-10 00:40:00,
2013-06-09 19:55:00,69.9,61.2,29.72,WNW,288,0.0,3.0,74,0.00,,---,0.43,VWS V14.01,2013-06-10 00:55:00,
2013-06-09 20:10:00,69.7,61.4,29.72,WNW,290,1.0,4.0,75,0.00,,---,0.43,VWS V14.01,2013-06-10 01:10:00,
2013-06-09 20:25:00,69.2,61.3,29.72,WNW,290,0.0,3.0,76,0.00,,---,0.43,VWS V14.01,2013-06-10 01:25:00,
2013-06-09 20:40:00,68.6,61.1,29.72,WNW,290,0.0,0.0,77,0.00,,---,0.43,VWS V14.01,2013-06-10 01:40:00,
2013-06-09 20:55:00,68.0,61.2,29.73,WNW,290,0.0,0.0,79,0.00,,---,0.43,VWS V14.01,2013-06-10 01:55:00,
2013-06-09 21:10:00,67.5,61.1,29.73,WNW,290,0.0,0.0,80,0.00,,---,0.43,VWS V14.01,2013-06-10 02:10:00,
2013-06-09 21:25:00,66.8,60.8,29.73,WNW,290,0.0,0.0,81,0.00,,---,0.43,VWS V14.01,2013-06-10 02:25:00,
2013-06-09 21:40:00,66.2,60.5,29.74,WNW,290,0.0,1.0,82,0.00,,---,0.43,VWS V14.01,2013-06-10 02:40:00,
2013-06-09 21:55:00,65.6,60.6,29.74,WNW,290,0.0,0.0,84,0.00,,---,0.43,VWS V14.01,2013-06-10 02:55:00,
2013-06-09 22:10:00,65.1,60.2,29.75,WNW,290,0.0,0.0,84,0.00,,---,0.43,VWS V14.01,2013-06-10 03:10:00,
2013-06-09 22:25:00,64.8,60.2,29.75,WNW,290,1.0,2.0,85,0.00,,---,0.43,VWS V14.01,2013-06-10 03:25:00,
2013-06-09 22:40:00,64.8,60.2,29.75,WNW,290,1.0,3.0,85,0.00,,---,0.43,VWS V14.01,2013-06-10 03:40:00,
2013-06-09 22:55:00,64.4,59.8,29.75,WNW,290,0.0,3.0,85,0.00,,---,0.43,VWS V14.01,2013-06-10 03:55:00,
2013-06-09 23:10:00,64.2,59.9,29.76,WNW,290,2.0,3.0,86,0.00,,---,0.43,VWS V14.01,2013-06-10 04:10:00,
2013-06-09 23:25:00,64.1,59.5,29.76,WNW,290,0.0,2.0,85,0.00,,---,0.43,VWS V14.01,2013-06-10 04:25:00,
2013-06-09 23:40:00,63.7,59.1,29.76,WNW,290,0.0,1.0,85,0.00,,---,0.43,VWS V14.01,2013-06-10 04:40:00,
2013-06-09 23:55:00,63.6,58.7,29.76,WNW,290,0.0,4.0,84,0.00,,---,0.43,VWS V14.01,2013-06-10 04:55:00,